Time,TemperatureF,DewpointF,PressureIn,WindDirection,WindDirectionDegrees,WindSpeedMPH,WindSpeedGustMPH,Humidity,HourlyPrecipIn,Conditions,Clouds,dailyrainin,SoftwareType,DateUTC
2013-10-09 00:02:00,36.5,30.0,29.88,SSW,202,2.7,2.9,77,0.00,,---,0.00,VWS V14.01,2013-10-09 04:02:00,
2013-10-09 00:04:00,36.3,29.8,29.88,SSW,202,1.6,2.5,77,0.00,,---,0.00,VWS V14.01,2013-10-09 04:04:00,
2013-10-09 00:06:00,36.3,29.8,29.88,SSW,202,2.0,2.0,77,0.00,,---,0.00,VWS V14.01,2013-10-09 04:06:00,
2013-10-09 00:08:00,36.1,29.6,29.88,SSW,202,2.0,2.2,77,0.00,,---,0.00,VWS V14.01,2013-10-09 04:08:00,
2013-10-09 00:13:00,36.1,29.6,29.88,SSW,202,2.7,2.7,77,0.00,,---,0.00,VWS V14.01,2013-10-09 04:13:00,
2013-10-09 00:18:00,35.8,29.3,29.88,ENE,68,1.3,2.5,77,0.00,,---,0.00,VWS V14.01,2013-10-09 04:18:00,
2013-10-09 00:23:00,35.8,29.6,29.88,ENE,68,0.0,0.0,78,0.00,,---,0.00,VWS V14.01,2013-10-09 04:23:00,
2013-10-09 00:27:00,35.8,29.6,29.88,ENE,68,2.0,2.2,78,0.00,,---,0.00,VWS V14.01,2013-10-09 04:27:00,
2013-10-09 00:32:00,35.6,29.4,29.88,WSW,248,2.5,2.5,78,0.00,,---,0.00,VWS V14.01,2013-10-09 04:32:00,
2013-10-09 00:37:00,35.6,29.4,29.88,WSW,248,1.6,1.6,78,0.00,,---,0.00,VWS V14.01,2013-10-09 04:37:00,
2013-10-09 00:43:00,35.4,29.2,29.88,WSW,248,0.0,2.0,78,0.00,,---,0.00,VWS V14.01,2013-10-09 04:43:00,
2013-10-09 00:48:00,35.2,29.1,29.88,WSW,248,0.0,0.0,78,0.00,,---,0.00,VWS V14.01,2013-10-09 04:48:00,
2013-10-09 00:53:00,35.1,29.2,29.88,WSW,248,1.3,1.3,79,0.00,,---,0.00,VWS V14.01,2013-10-09 04:53:00,
2013-10-09 00:58:00,35.1,29.5,29.88,WSW,248,0.0,0.0,80,0.00,,---,0.00,VWS V14.01,2013-10-09 04:58:00,
2013-10-09 01:03:00,35.1,29.5,29.88,WSW,248,1.6,2.0,80,0.00,,---,0.00,VWS V14.01,2013-10-09 05:03:00,
2013-10-09 01:08:00,34.9,29.0,29.88,WSW,248,1.3,1.3,79,0.00,,---,0.00,VWS V14.01,2013-10-09 05:08:00,
2013-10-09 01:14:00,34.7,28.9,29.88,East,90,0.0,1.1,79,0.00,,---,0.00,VWS V14.01,2013-10-09 05:14:00,
2013-10-09 01:19:00,34.5,28.7,29.91,East,90,0.0,0.0,79,0.00,,---,0.00,VWS V14.01,2013-10-09 05:19:00,
2013-10-09 01:24:00,34.5,29.0,29.91,East,90,1.3,1.6,80,0.00,,---,0.00,VWS V14.01,2013-10-09 05:24:00,
2013-10-09 01:29:00,34.3,28.5,29.91,ESE,112,2.0,2.0,79,0.00,,---,0.00,VWS V14.01,2013-10-09 05:29:00,
2013-10-09 01:34:00,34.3,28.8,29.91,ESE,112,0.9,1.6,80,0.00,,---,0.00,VWS V14.01,2013-10-09 05:34:00,
2013-10-09 01:39:00,34.3,28.8,29.91,ESE,112,0.0,0.0,80,0.00,,---,0.00,VWS V14.01,2013-10-09 05:39:00,
2013-10-09 01:44:00,34.2,28.6,29.91,ESE,112,0.0,0.0,80,0.00,,---,0.00,VWS V14.01,2013-10-09 05:44:00,
2013-10-09 01:49:00,34.0,28.5,29.91,SSW,202,2.0,2.0,80,0.00,,---,0.00,VWS V14.01,2013-10-09 05:49:00,
2013-10-09 01:54:00,34.0,28.5,29.91,SSW,202,2.0,2.5,80,0.00,,---,0.00,VWS V14.01,2013-10-09 05:54:00,
2013-10-09 01:59:00,34.0,28.5,29.91,SSW,202,0.0,0.0,80,0.00,,---,0.00,VWS V14.01,2013-10-09 05:59:00,
2013-10-09 02:04:00,34.0,28.5,29.91,SSW,202,2.0,2.0,80,0.00,,---,0.00,VWS V14.01,2013-10-09 06:04:00,
2013-10-09 02:09:00,34.0,28.5,29.91,SSW,202,0.0,0.0,80,0.00,,---,0.00,VWS V14.01,2013-10-09 06:09:00,
2013-10-09 02:14:00,33.8,28.6,29.91,SSW,202,1.6,2.0,81,0.00,,---,0.00,VWS V14.01,2013-10-09 06:14:00,
2013-10-09 02:19:00,33.6,28.4,29.91,SSW,202,1.6,2.0,81,0.00,,---,0.00,VWS V14.01,2013-10-09 06:19:00,
2013-10-09 02:25:00,33.4,28.2,29.91,SSW,202,1.3,1.3,81,0.00,,---,0.00,VWS V14.01,2013-10-09 06:25:00,
2013-10-09 02:30:00,33.6,28.4,29.91,SSW,202,1.3,2.0,81,0.00,,---,0.00,VWS V14.01,2013-10-09 06:30:00,
2013-10-09 02:35:00,33.6,28.7,29.91,SSW,202,1.1,1.3,82,0.00,,---,0.00,VWS V14.01,2013-10-09 06:35:00,
2013-10-09 02:40:00,33.4,28.5,29.91,SSW,202,0.0,0.0,82,0.00,,---,0.00,VWS V14.01,2013-10-09 06:40:00,
2013-10-09 02:45:00,33.3,28.4,29.91,SSW,202,0.0,0.0,82,0.00,,---,0.00,VWS V14.01,2013-10-09 06:45:00,
2013-10-09 02:50:00,33.3,28.4,29.91,SSW,202,0.0,0.0,82,0.00,,---,0.00,VWS V14.01,2013-10-09 06:50:00,
2013-10-09 02:55:00,33.1,28.2,29.91,SSW,202,0.0,0.0,82,0.00,,---,0.00,VWS V14.01,2013-10-09 06:55:00,
2013-10-09 03:00:00,32.9,28.0,29.91,SSW,202,0.0,0.0,82,0.00,,---,0.00,VWS V14.01,2013-10-09 07:00:00,
2013-10-09 03:05:00,32.7,27.8,29.91,SSW,202,0.0,0.0,82,0.00,,---,0.00,VWS V14.01,2013-10-09 07:05:00,
2013-10-09 03:10:00,32.7,27.8,29.91,SSW,202,2.7,2.7,82,0.00,,---,0.00,VWS V14.01,2013-10-09 07:10:00,
2013-10-09 03:15:00,32.9,28.3,29.91,SSW,202,0.0,1.3,83,0.00,,---,0.00,VWS V14.01,2013-10-09 07:15:00,
2013-10-09 03:20:00,32.9,28.3,29.91,SSW,202,0.0,0.0,83,0.00,,---,0.00,VWS V14.01,2013-10-09 07:20:00,
2013-10-09 03:25:00,32.7,28.1,29.91,SSW,202,2.5,2.5,83,0.00,,---,0.00,VWS V14.01,2013-10-09 07:25:00,
2013-10-09 03:30:00,32.7,28.1,29.91,SSW,202,2.7,2.7,83,0.00,,---,0.00,VWS V14.01,2013-10-09 07:30:00,
2013-10-09 03:35:00,32.7,28.1,29.91,SSW,202,0.0,1.3,83,0.00,,---,0.00,VWS V14.01,2013-10-09 07:35:00,
2013-10-09 03:40:00,32.7,28.1,29.91,SSW,202,1.3,2.0,83,0.00,,---,0.00,VWS V14.01,2013-10-09 07:40:00,
2013-10-09 03:45:00,32.5,27.7,29.91,SSW,202,0.0,0.0,82,0.00,,---,0.00,VWS V14.01,2013-10-09 07:45:00,
2013-10-09 03:50:00,32.4,27.5,29.94,SSW,202,2.5,2.7,82,0.00,,---,0.00,VWS V14.01,2013-10-09 07:50:00,
2013-10-09 03:55:00,32.4,27.8,29.94,SSW,202,0.0,0.0,83,0.00,,---,0.00,VWS V14.01,2013-10-09 07:55:00,
2013-10-09 04:00:00,32.2,27.6,29.94,SSW,202,0.0,0.0,83,0.00,,---,0.00,VWS V14.01,2013-10-09 08:00:00,
2013-10-09 04:06:00,32.2,27.6,29.94,SSW,202,0.0,0.0,83,0.00,,---,0.00,VWS V14.01,2013-10-09 08:06:00,
2013-10-09 04:11:00,32.2,27.6,29.94,SSW,202,2.0,2.2,83,0.00,,---,0.00,VWS V14.01,2013-10-09 08:11:00,
2013-10-09 04:16:00,32.0,27.4,29.94,SSW,202,1.3,1.3,83,0.00,,---,0.00,VWS V14.01,2013-10-09 08:16:00,
2013-10-09 04:21:00,31.8,27.3,29.94,South,180,2.0,2.5,83,0.00,,---,0.00,VWS V14.01,2013-10-09 08:21:00,
2013-10-09 04:26:00,32.0,27.7,29.94,South,180,0.0,1.6,84,0.00,,---,0.00,VWS V14.01,2013-10-09 08:26:00,
2013-10-09 04:31:00,32.2,28.2,29.94,South,180,0.0,0.0,85,0.00,,---,0.00,VWS V14.01,2013-10-09 08:31:00,
2013-10-09 04:36:00,32.0,28.0,29.94,South,180,0.0,0.0,85,0.00,,---,0.00,VWS V14.01,2013-10-09 08:36:00,
2013-10-09 04:41:00,32.0,27.7,29.94,South,180,0.0,0.0,84,0.00,,---,0.00,VWS V14.01,2013-10-09 08:41:00,
2013-10-09 04:46:00,32.0,28.0,29.94,South,180,0.0,0.0,85,0.00,,---,0.00,VWS V14.01,2013-10-09 08:46:00,
2013-10-09 04:52:00,32.0,28.0,29.94,South,180,0.0,0.0,85,0.00,,---,0.00,VWS V14.01,2013-10-09 08:52:00,
2013-10-09 04:57:00,31.8,27.8,29.94,South,180,0.0,0.0,85,0.00,,---,0.00,VWS V14.01,2013-10-09 08:57:00,
2013-10-09 05:02:00,31.8,27.8,29.94,South,180,0.0,0.0,85,0.00,,---,0.00,VWS V14.01,2013-10-09 09:02:00,
2013-10-09 05:07:00,31.8,27.8,29.94,South,180,0.0,0.0,85,0.00,,---,0.00,VWS V14.01,2013-10-09 09:07:00,
2013-10-09 05:12:00,31.8,27.8,29.94,South,180,2.5,2.5,85,0.00,,---,0.00,VWS V14.01,2013-10-09 09:12:00,
2013-10-09 05:17:00,32.0,28.0,29.94,South,180,2.2,2.5,85,0.00,,---,0.00,VWS V14.01,2013-10-09 09:17:00,
2013-10-09 05:22:00,32.2,28.2,29.94,SSW,202,2.2,2.5,85,0.00,,---,0.00,VWS V14.01,2013-10-09 09:22:00,
2013-10-09 05:27:00,32.5,28.8,29.94,SW,225,1.6,2.0,86,0.00,,---,0.00,VWS V14.01,2013-10-09 09:27:00,
2013-10-09 05:32:00,32.5,28.8,29.94,SW,225,1.3,1.3,86,0.00,,---,0.00,VWS V14.01,2013-10-09 09:32:00,
2013-10-09 05:37:00,32.5,28.5,29.94,SW,225,0.0,0.0,85,0.00,,---,0.00,VWS V14.01,2013-10-09 09:37:00,
2013-10-09 05:42:00,32.4,28.4,29.94,SW,225,0.0,0.0,85,0.00,,---,0.00,VWS V14.01,2013-10-09 09:42:00,
2013-10-09 05:47:00,32.4,28.4,29.94,SW,225,0.0,0.0,85,0.00,,---,0.00,VWS V14.01,2013-10-09 09:47:00,
2013-10-09 05:52:00,32.2,28.2,29.94,SW,225,0.0,0.0,85,0.00,,---,0.00,VWS V14.01,2013-10-09 09:52:00,
2013-10-09 05:57:00,32.0,28.0,29.94,SW,225,0.0,0.0,85,0.00,,---,0.00,VWS V14.01,2013-10-09 09:57:00,
2013-10-09 06:02:00,32.0,28.0,29.94,SW,225,0.0,0.0,85,0.00,,---,0.00,VWS V14.01,2013-10-09 10:02:00,
2013-10-09 06:07:00,31.8,27.8,29.97,SW,225,0.0,0.0,85,0.00,,---,0.00,VWS V14.01,2013-10-09 10:07:00,
2013-10-09 06:12:00,31.8,27.8,29.97,SW,225,0.0,0.0,85,0.00,,---,0.00,VWS V14.01,2013-10-09 10:12:00,
2013-10-09 06:17:00,31.8,27.8,29.97,SW,225,0.0,0.0,85,0.00,,---,0.00,VWS V14.01,2013-10-09 10:17:00,
2013-10-09 06:23:00,31.6,27.7,29.97,SW,225,0.0,0.0,85,0.00,,---,0.00,VWS V14.01,2013-10-09 10:23:00,
2013-10-09 06:29:00,31.5,27.5,29.97,SW,225,0.0,0.0,85,0.00,,---,0.00,VWS V14.01,2013-10-09 10:29:00,
2013-10-09 06:34:00,31.5,27.5,29.94,SW,225,0.0,0.0,85,0.00,,---,0.00,VWS V14.01,2013-10-09 10:34:00,
2013-10-09 06:39:00,31.3,27.3,29.94,SW,225,0.0,0.0,85,0.00,,---,0.00,VWS V14.01,2013-10-09 10:39:00,
2013-10-09 06:44:00,31.1,27.1,29.94,SSW,202,0.0,0.0,85,0.00,,---,0.00,VWS V14.01,2013-10-09 10:44:00,
2013-10-09 06:49:00,31.1,27.1,29.97,SSW,202,0.0,0.0,85,0.00,,---,0.00,VWS V14.01,2013-10-09 10:49:00,
2013-10-09 06:54:00,31.1,27.4,29.97,SSW,202,0.0,0.0,86,0.00,,---,0.00,VWS V14.01,2013-10-09 10:54:00,
2013-10-09 06:59:00,31.1,27.4,29.97,SSW,202,0.0,0.0,86,0.00,,---,0.00,VWS V14.01,2013-10-09 10:59:00,
2013-10-09 07:04:00,31.1,27.4,29.97,SSW,202,0.0,0.0,86,0.00,,---,0.00,VWS V14.01,2013-10-09 11:04:00,
2013-10-09 07:09:00,31.1,27.4,29.97,SSW,202,0.0,0.0,86,0.00,,---,0.00,VWS V14.01,2013-10-09 11:09:00,
2013-10-09 07:14:00,31.1,27.4,29.97,SSW,202,0.0,0.0,86,0.00,,---,0.00,VWS V14.01,2013-10-09 11:14:00,
2013-10-09 07:19:00,31.1,27.4,29.97,SSW,202,0.0,0.0,86,0.00,,---,0.00,VWS V14.01,2013-10-09 11:19:00,
2013-10-09 07:24:00,31.1,27.4,29.97,SSW,202,0.0,0.0,86,0.00,,---,0.00,VWS V14.01,2013-10-09 11:24:00,
2013-10-09 07:29:00,31.1,27.4,29.97,SSW,202,0.0,0.0,86,0.00,,---,0.00,VWS V14.01,2013-10-09 11:29:00,
2013-10-09 07:34:00,31.5,28.0,29.97,SSW,202,0.0,0.0,87,0.00,,---,0.00,VWS V14.01,2013-10-09 11:34:00,
2013-10-09 07:39:00,31.5,28.0,29.97,SSW,202,0.0,0.0,87,0.00,,---,0.00,VWS V14.01,2013-10-09 11:39:00,
2013-10-09 07:44:00,31.6,28.2,29.97,SSW,202,0.0,0.0,87,0.00,,---,0.00,VWS V14.01,2013-10-09 11:44:00,
2013-10-09 07:49:00,31.8,28.4,29.97,SSW,202,0.0,0.0,87,0.00,,---,0.00,VWS V14.01,2013-10-09 11:49:00,
2013-10-09 07:54:00,32.2,29.0,29.97,SSW,202,0.0,0.0,88,0.00,,---,0.00,VWS V14.01,2013-10-09 11:54:00,
2013-10-09 08:00:00,32.4,29.2,29.97,SSW,202,0.0,0.0,88,0.00,,---,0.00,VWS V14.01,2013-10-09 12:00:00,
2013-10-09 08:05:00,32.5,29.4,29.97,SSW,202,0.0,1.3,88,0.00,,---,0.00,VWS V14.01,2013-10-09 12:05:00,
2013-10-09 08:10:00,32.7,29.6,29.97,SSW,202,0.0,0.0,88,0.00,,---,0.00,VWS V14.01,2013-10-09 12:10:00,
2013-10-09 08:15:00,32.9,29.7,29.97,SSW,202,0.0,0.0,88,0.00,,---,0.00,VWS V14.01,2013-10-09 12:15:00,
2013-10-09 08:21:00,33.3,30.4,29.97,SSW,202,0.0,0.0,89,0.00,,---,0.00,VWS V14.01,2013-10-09 12:21:00,
2013-10-09 08:26:00,33.6,30.7,29.97,SSW,202,0.0,0.0,89,0.00,,---,0.00,VWS V14.01,2013-10-09 12:26:00,
2013-10-09 08:32:00,34.0,31.1,29.97,SSE,158,0.0,0.0,89,0.00,,---,0.00,VWS V14.01,2013-10-09 12:32:00,
2013-10-09 08:38:00,34.3,31.4,29.97,SSE,158,0.0,0.0,89,0.00,,---,0.00,VWS V14.01,2013-10-09 12:38:00,
2013-10-09 08:43:00,34.9,32.0,29.97,SSE,158,0.0,0.0,89,0.00,,---,0.00,VWS V14.01,2013-10-09 12:43:00,
2013-10-09 08:49:00,35.4,32.8,29.97,SSE,158,0.0,0.0,90,0.00,,---,0.00,VWS V14.01,2013-10-09 12:49:00,
2013-10-09 08:54:00,35.8,32.9,29.97,SSE,158,0.0,0.0,89,0.00,,---,0.00,VWS V14.01,2013-10-09 12:54:00,
2013-10-09 09:00:00,36.5,33.8,29.97,SSE,158,0.0,0.0,90,0.00,,---,0.00,VWS V14.01,2013-10-09 13:00:00,
2013-10-09 09:06:00,37.0,34.4,29.97,SSE,158,0.0,0.0,90,0.00,,---,0.00,VWS V14.01,2013-10-09 13:06:00,
2013-10-09 09:11:00,37.6,34.9,29.97,SSE,158,0.0,0.0,90,0.00,,---,0.00,VWS V14.01,2013-10-09 13:11:00,
2013-10-09 09:16:00,38.1,35.7,29.97,SSE,158,0.0,0.0,91,0.00,,---,0.00,VWS V14.01,2013-10-09 13:16:00,
2013-10-09 09:21:00,38.7,36.3,29.97,SSE,158,0.0,0.0,91,0.00,,---,0.00,VWS V14.01,2013-10-09 13:21:00,
2013-10-09 09:26:00,39.0,36.6,29.97,SSE,158,0.0,0.0,91,0.00,,---,0.00,VWS V14.01,2013-10-09 13:26:00,
2013-10-09 09:31:00,39.9,37.5,29.97,SSE,158,2.0,2.2,91,0.00,,---,0.00,VWS V14.01,2013-10-09 13:31:00,
2013-10-09 09:36:00,40.5,38.0,30.00,SSE,158,0.0,0.0,91,0.00,,---,0.00,VWS V14.01,2013-10-09 13:36:00,
2013-10-09 09:41:00,41.0,38.6,30.00,SSE,158,0.0,0.0,91,0.00,,---,0.00,VWS V14.01,2013-10-09 13:41:00,
2013-10-09 09:46:00,41.5,38.8,30.00,SSE,158,0.0,0.0,90,0.00,,---,0.00,VWS V14.01,2013-10-09 13:46:00,
2013-10-09 09:51:00,42.1,39.4,29.97,SSE,158,0.0,0.0,90,0.00,,---,0.00,VWS V14.01,2013-10-09 13:51:00,
2013-10-09 09:56:00,42.3,39.5,29.97,SSE,158,0.0,0.0,90,0.00,,---,0.00,VWS V14.01,2013-10-09 13:56:00,
2013-10-09 10:01:00,43.2,40.1,29.97,East,90,1.1,2.7,89,0.00,,---,0.00,VWS V14.01,2013-10-09 14:01:00,
2013-10-09 10:06:00,43.9,40.8,29.97,ENE,68,1.6,3.1,89,0.00,,---,0.00,VWS V14.01,2013-10-09 14:06:00,
2013-10-09 10:11:00,44.4,41.1,29.97,SSE,158,0.0,1.1,88,0.00,,---,0.00,VWS V14.01,2013-10-09 14:11:00,
2013-10-09 10:16:00,45.1,41.5,29.97,East,90,0.0,2.5,87,0.00,,---,0.00,VWS V14.01,2013-10-09 14:16:00,
2013-10-09 10:21:00,45.9,42.2,29.97,ENE,68,1.1,1.3,87,0.00,,---,0.00,VWS V14.01,2013-10-09 14:21:00,
2013-10-09 10:26:00,46.4,42.5,29.97,ESE,112,1.6,1.6,86,0.00,,---,0.00,VWS V14.01,2013-10-09 14:26:00,
2013-10-09 10:32:00,47.3,43.0,29.97,South,180,1.3,1.3,85,0.00,,---,0.00,VWS V14.01,2013-10-09 14:32:00,
2013-10-09 10:37:00,47.8,43.2,29.97,NNE,22,0.9,2.0,84,0.00,,---,0.00,VWS V14.01,2013-10-09 14:37:00,
2013-10-09 10:43:00,48.7,43.5,29.97,East,90,2.7,3.1,82,0.00,,---,0.00,VWS V14.01,2013-10-09 14:43:00,
2013-10-09 10:48:00,49.1,43.5,29.97,SE,135,1.3,1.3,81,0.00,,---,0.00,VWS V14.01,2013-10-09 14:48:00,
2013-10-09 10:54:00,50.0,43.4,29.97,NE,45,0.9,1.6,78,0.00,,---,0.00,VWS V14.01,2013-10-09 14:54:00,
2013-10-09 10:59:00,50.7,43.4,29.97,NE,45,2.7,2.7,76,0.00,,---,0.00,VWS V14.01,2013-10-09 14:59:00,
2013-10-09 11:04:00,50.9,43.3,29.97,SSE,158,1.6,2.0,75,0.00,,---,0.00,VWS V14.01,2013-10-09 15:04:00,
2013-10-09 11:09:00,51.4,43.4,29.97,SSE,158,2.9,2.9,74,0.00,,---,0.00,VWS V14.01,2013-10-09 15:09:00,
2013-10-09 11:14:00,52.2,43.1,29.97,NE,45,2.5,2.9,71,0.00,,---,0.00,VWS V14.01,2013-10-09 15:14:00,
2013-10-09 11:19:00,52.5,42.7,29.97,SW,225,2.2,3.1,69,0.00,,---,0.00,VWS V14.01,2013-10-09 15:19:00,
2013-10-09 11:24:00,52.9,40.2,29.97,NNE,22,2.7,5.4,62,0.00,,---,0.00,VWS V14.01,2013-10-09 15:24:00,
2013-10-09 11:29:00,53.2,40.6,29.97,WNW,292,3.8,3.8,62,0.00,,---,0.00,VWS V14.01,2013-10-09 15:29:00,
2013-10-09 11:34:00,53.4,40.3,29.94,East,90,2.7,2.7,61,0.00,,---,0.00,VWS V14.01,2013-10-09 15:34:00,
2013-10-09 11:39:00,53.8,39.4,29.94,NNE,22,3.8,3.8,58,0.00,,---,0.00,VWS V14.01,2013-10-09 15:39:00,
2013-10-09 11:44:00,54.0,39.1,29.94,East,90,1.1,2.5,57,0.00,,---,0.00,VWS V14.01,2013-10-09 15:44:00,
2013-10-09 11:49:00,54.3,39.4,29.97,ENE,68,2.7,4.0,57,0.00,,---,0.00,VWS V14.01,2013-10-09 15:49:00,
2013-10-09 11:54:00,54.7,38.4,29.97,ENE,68,1.1,2.2,54,0.00,,---,0.00,VWS V14.01,2013-10-09 15:54:00,
2013-10-09 11:59:00,55.2,38.4,29.97,ENE,68,1.1,4.7,53,0.00,,---,0.00,VWS V14.01,2013-10-09 15:59:00,
2013-10-09 12:04:00,55.2,37.9,29.97,ENE,68,2.5,2.9,52,0.00,,---,0.00,VWS V14.01,2013-10-09 16:04:00,
2013-10-09 12:10:00,55.6,36.7,29.97,SW,225,1.1,2.7,49,0.00,,---,0.00,VWS V14.01,2013-10-09 16:10:00,
2013-10-09 12:15:00,55.4,37.1,29.97,ESE,112,2.2,3.6,50,0.00,,---,0.00,VWS V14.01,2013-10-09 16:15:00,
2013-10-09 12:20:00,55.6,36.7,29.94,NE,45,1.3,3.1,49,0.00,,---,0.00,VWS V14.01,2013-10-09 16:20:00,
2013-10-09 12:25:00,55.9,38.1,29.94,ENE,68,2.5,2.5,51,0.00,,---,0.00,VWS V14.01,2013-10-09 16:25:00,
2013-10-09 12:30:00,56.1,37.8,29.94,SSW,202,2.2,3.4,50,0.00,,---,0.00,VWS V14.01,2013-10-09 16:30:00,
2013-10-09 12:35:00,56.5,38.1,29.94,East,90,3.4,3.8,50,0.00,,---,0.00,VWS V14.01,2013-10-09 16:35:00,
2013-10-09 12:41:00,57.0,37.5,29.94,ESE,112,2.9,5.4,48,0.00,,---,0.00,VWS V14.01,2013-10-09 16:41:00,
2013-10-09 12:46:00,57.4,37.3,29.94,SSE,158,4.0,4.0,47,0.00,,---,0.00,VWS V14.01,2013-10-09 16:46:00,
2013-10-09 12:51:00,57.6,37.5,29.94,ESE,112,3.1,3.1,47,0.00,,---,0.00,VWS V14.01,2013-10-09 16:51:00,
2013-10-09 12:56:00,57.7,37.1,29.94,WSW,248,2.7,2.7,46,0.00,,---,0.00,VWS V14.01,2013-10-09 16:56:00,
2013-10-09 13:01:00,57.9,37.3,29.94,ENE,68,3.1,3.6,46,0.00,,---,0.00,VWS V14.01,2013-10-09 17:01:00,
2013-10-09 13:06:00,58.1,37.5,29.94,NE,45,1.6,2.2,46,0.00,,---,0.00,VWS V14.01,2013-10-09 17:06:00,
2013-10-09 13:11:00,57.9,36.7,29.94,NNE,22,1.6,2.5,45,0.00,,---,0.00,VWS V14.01,2013-10-09 17:11:00,
2013-10-09 13:16:00,58.1,36.9,29.94,South,180,2.5,2.5,45,0.00,,---,0.00,VWS V14.01,2013-10-09 17:16:00,
2013-10-09 13:22:00,58.5,37.2,29.91,East,90,1.6,2.9,45,0.00,,---,0.00,VWS V14.01,2013-10-09 17:22:00,
2013-10-09 13:27:00,58.6,37.4,29.91,NNE,22,2.0,2.9,45,0.00,,---,0.00,VWS V14.01,2013-10-09 17:27:00,
2013-10-09 13:32:00,58.8,37.5,29.91,ENE,68,2.0,3.8,45,0.00,,---,0.00,VWS V14.01,2013-10-09 17:32:00,
2013-10-09 13:37:00,59.2,37.3,29.91,WNW,292,4.0,4.0,44,0.00,,---,0.00,VWS V14.01,2013-10-09 17:37:00,
2013-10-09 13:42:00,59.2,36.7,29.91,East,90,2.0,2.7,43,0.00,,---,0.00,VWS V14.01,2013-10-09 17:42:00,
2013-10-09 13:48:00,59.4,37.5,29.91,NE,45,2.7,3.1,44,0.00,,---,0.00,VWS V14.01,2013-10-09 17:48:00,
2013-10-09 13:53:00,59.5,37.6,29.91,East,90,1.6,2.0,44,0.00,,---,0.00,VWS V14.01,2013-10-09 17:53:00,
2013-10-09 13:58:00,59.7,36.6,29.91,WSW,248,1.1,3.6,42,0.00,,---,0.00,VWS V14.01,2013-10-09 17:58:00,
2013-10-09 14:03:00,59.7,37.2,29.91,ENE,68,3.1,3.1,43,0.00,,---,0.00,VWS V14.01,2013-10-09 18:03:00,
2013-10-09 14:08:00,59.9,37.4,29.88,ESE,112,3.4,3.4,43,0.00,,---,0.00,VWS V14.01,2013-10-09 18:08:00,
2013-10-09 14:13:00,59.9,37.4,29.88,NNE,22,2.5,2.5,43,0.00,,---,0.00,VWS V14.01,2013-10-09 18:13:00,
2013-10-09 14:18:00,60.1,36.9,29.88,East,90,2.0,2.0,42,0.00,,---,0.00,VWS V14.01,2013-10-09 18:18:00,
2013-10-09 14:24:00,60.1,36.3,29.88,NE,45,2.7,6.0,41,0.00,,---,0.00,VWS V14.01,2013-10-09 18:24:00,
2013-10-09 14:29:00,60.4,37.3,29.88,ENE,68,1.3,2.5,42,0.00,,---,0.00,VWS V14.01,2013-10-09 18:29:00,
2013-10-09 14:34:00,60.6,36.8,29.88,ENE,68,0.9,2.0,41,0.00,,---,0.00,VWS V14.01,2013-10-09 18:34:00,
2013-10-09 14:39:00,60.6,36.8,29.88,WNW,292,1.1,1.3,41,0.00,,---,0.00,VWS V14.01,2013-10-09 18:39:00,
2013-10-09 14:44:00,60.8,37.0,29.88,NNE,22,1.6,2.9,41,0.00,,---,0.00,VWS V14.01,2013-10-09 18:44:00,
2013-10-09 14:49:00,61.0,37.1,29.88,West,270,0.0,1.6,41,0.00,,---,0.00,VWS V14.01,2013-10-09 18:49:00,
2013-10-09 14:54:00,61.2,37.3,29.88,SSE,158,1.3,2.0,41,0.00,,---,0.00,VWS V14.01,2013-10-09 18:54:00,
2013-10-09 15:00:00,61.3,37.5,29.88,ENE,68,4.5,4.5,41,0.00,,---,0.00,VWS V14.01,2013-10-09 19:00:00,
2013-10-09 15:06:00,61.5,37.6,29.88,NW,315,2.5,2.7,41,0.00,,---,0.00,VWS V14.01,2013-10-09 19:06:00,
2013-10-09 15:11:00,61.5,37.6,29.88,ENE,68,1.3,2.2,41,0.00,,---,0.00,VWS V14.01,2013-10-09 19:11:00,
2013-10-09 15:17:00,61.7,37.2,29.88,East,90,0.0,1.6,40,0.00,,---,0.00,VWS V14.01,2013-10-09 19:17:00,
2013-10-09 15:22:00,61.7,37.2,29.88,East,90,0.0,2.5,40,0.00,,---,0.00,VWS V14.01,2013-10-09 19:22:00,
2013-10-09 15:27:00,61.7,37.2,29.88,ENE,68,2.7,4.3,40,0.00,,---,0.00,VWS V14.01,2013-10-09 19:27:00,
2013-10-09 15:32:00,61.9,37.3,29.88,North,0,2.5,2.5,40,0.00,,---,0.00,VWS V14.01,2013-10-09 19:32:00,
2013-10-09 15:37:00,61.7,37.2,29.85,SW,225,2.7,2.9,40,0.00,,---,0.00,VWS V14.01,2013-10-09 19:37:00,
2013-10-09 15:42:00,61.7,37.2,29.85,NE,45,0.0,0.0,40,0.00,,---,0.00,VWS V14.01,2013-10-09 19:42:00,
2013-10-09 15:47:00,61.7,37.2,29.85,SW,225,0.0,0.0,40,0.00,,---,0.00,VWS V14.01,2013-10-09 19:47:00,
2013-10-09 15:52:00,61.7,37.8,29.85,North,0,0.0,0.0,41,0.00,,---,0.00,VWS V14.01,2013-10-09 19:52:00,
2013-10-09 15:57:00,61.7,37.2,29.85,West,270,0.0,0.0,40,0.00,,---,0.00,VWS V14.01,2013-10-09 19:57:00,
2013-10-09 16:02:00,61.7,37.2,29.85,NNW,338,0.0,0.0,40,0.00,,---,0.00,VWS V14.01,2013-10-09 20:02:00,
2013-10-09 16:07:00,61.7,37.2,29.85,WSW,248,2.0,2.0,40,0.00,,---,0.00,VWS V14.01,2013-10-09 20:07:00,
2013-10-09 16:12:00,61.3,37.5,29.85,East,90,0.0,0.0,41,0.00,,---,0.00,VWS V14.01,2013-10-09 20:12:00,
2013-10-09 16:17:00,61.3,36.8,29.85,ESE,112,1.1,1.6,40,0.00,,---,0.00,VWS V14.01,2013-10-09 20:17:00,
2013-10-09 16:22:00,61.2,36.7,29.85,NNW,338,0.0,2.5,40,0.00,,---,0.00,VWS V14.01,2013-10-09 20:22:00,
2013-10-09 16:28:00,61.2,36.7,29.85,ENE,68,2.5,2.5,40,0.00,,---,0.00,VWS V14.01,2013-10-09 20:28:00,
2013-10-09 16:33:00,61.0,36.5,29.85,NNE,22,2.2,2.5,40,0.00,,---,0.00,VWS V14.01,2013-10-09 20:33:00,
2013-10-09 16:38:00,60.8,35.7,29.85,NNE,22,2.0,2.2,39,0.00,,---,0.00,VWS V14.01,2013-10-09 20:38:00,
2013-10-09 16:43:00,60.6,36.2,29.85,NE,45,1.3,1.6,40,0.00,,---,0.00,VWS V14.01,2013-10-09 20:43:00,
2013-10-09 16:48:00,60.4,36.0,29.85,NNW,338,0.9,3.1,40,0.00,,---,0.00,VWS V14.01,2013-10-09 20:48:00,
2013-10-09 16:53:00,60.1,35.7,29.85,NE,45,1.1,1.6,40,0.00,,---,0.00,VWS V14.01,2013-10-09 20:53:00,
2013-10-09 16:58:00,59.7,35.4,29.85,ENE,68,0.0,0.0,40,0.00,,---,0.00,VWS V14.01,2013-10-09 20:58:00,
2013-10-09 17:03:00,59.5,35.2,29.85,NNE,22,1.1,2.2,40,0.00,,---,0.00,VWS V14.01,2013-10-09 21:03:00,
2013-10-09 17:08:00,59.2,34.9,29.85,NNE,22,0.0,0.0,40,0.00,,---,0.00,VWS V14.01,2013-10-09 21:08:00,
2013-10-09 17:13:00,58.6,35.0,29.85,NNE,22,0.0,0.0,41,0.00,,---,0.00,VWS V14.01,2013-10-09 21:13:00,
2013-10-09 17:18:00,58.1,34.5,29.85,NNE,22,0.0,0.0,41,0.00,,---,0.00,VWS V14.01,2013-10-09 21:18:00,
2013-10-09 17:23:00,57.7,34.8,29.85,NNE,22,0.0,0.0,42,0.00,,---,0.00,VWS V14.01,2013-10-09 21:23:00,
2013-10-09 17:28:00,57.2,35.5,29.85,NNE,22,0.0,0.0,44,0.00,,---,0.00,VWS V14.01,2013-10-09 21:28:00,
2013-10-09 17:33:00,56.7,36.1,29.85,NNE,22,0.0,0.0,46,0.00,,---,0.00,VWS V14.01,2013-10-09 21:33:00,
2013-10-09 17:38:00,56.3,36.9,29.85,NNE,22,0.0,0.0,48,0.00,,---,0.00,VWS V14.01,2013-10-09 21:38:00,
2013-10-09 17:43:00,55.8,36.9,29.85,NNE,22,2.0,2.0,49,0.00,,---,0.00,VWS V14.01,2013-10-09 21:43:00,
2013-10-09 17:48:00,55.2,36.9,29.85,SW,225,1.1,1.1,50,0.00,,---,0.00,VWS V14.01,2013-10-09 21:48:00,
2013-10-09 17:53:00,54.7,36.4,29.85,SW,225,0.0,0.0,50,0.00,,---,0.00,VWS V14.01,2013-10-09 21:53:00,
2013-10-09 17:58:00,54.1,36.4,29.85,SW,225,0.0,0.0,51,0.00,,---,0.00,VWS V14.01,2013-10-09 21:58:00,
2013-10-09 18:03:00,53.4,36.7,29.85,SW,225,1.1,1.3,53,0.00,,---,0.00,VWS V14.01,2013-10-09 22:03:00,
2013-10-09 18:08:00,53.1,36.9,29.85,SW,225,1.3,1.6,54,0.00,,---,0.00,VWS V14.01,2013-10-09 22:08:00,
2013-10-09 18:13:00,52.5,36.8,29.85,SW,225,0.0,0.0,55,0.00,,---,0.00,VWS V14.01,2013-10-09 22:13:00,
2013-10-09 18:19:00,51.8,36.6,29.88,SW,225,1.1,2.0,56,0.00,,---,0.00,VWS V14.01,2013-10-09 22:19:00,
2013-10-09 18:24:00,51.4,36.7,29.88,SW,225,0.9,0.9,57,0.00,,---,0.00,VWS V14.01,2013-10-09 22:24:00,
2013-10-09 18:30:00,50.7,36.9,29.88,SW,225,1.6,2.5,59,0.00,,---,0.00,VWS V14.01,2013-10-09 22:30:00,
2013-10-09 18:35:00,50.4,36.6,29.85,SW,225,1.3,1.3,59,0.00,,---,0.00,VWS V14.01,2013-10-09 22:35:00,
2013-10-09 18:40:00,50.0,36.7,29.85,SW,225,2.0,2.0,60,0.00,,---,0.00,VWS V14.01,2013-10-09 22:40:00,
2013-10-09 18:45:00,49.8,37.3,29.85,SW,225,1.3,1.3,62,0.00,,---,0.00,VWS V14.01,2013-10-09 22:45:00,
2013-10-09 18:51:00,49.5,37.0,29.85,South,180,1.3,1.3,62,0.00,,---,0.00,VWS V14.01,2013-10-09 22:51:00,
2013-10-09 18:56:00,49.3,37.2,29.85,West,270,2.0,2.5,63,0.00,,---,0.00,VWS V14.01,2013-10-09 22:56:00,
2013-10-09 19:01:00,49.1,37.1,29.85,SW,225,2.2,3.1,63,0.00,,---,0.00,VWS V14.01,2013-10-09 23:01:00,
2013-10-09 19:06:00,48.7,37.1,29.85,SW,225,2.5,2.5,64,0.00,,---,0.00,VWS V14.01,2013-10-09 23:06:00,
2013-10-09 19:11:00,48.0,36.8,29.85,SW,225,2.2,2.2,65,0.00,,---,0.00,VWS V14.01,2013-10-09 23:11:00,
2013-10-09 19:16:00,47.7,36.5,29.85,SW,225,1.1,1.6,65,0.00,,---,0.00,VWS V14.01,2013-10-09 23:16:00,
2013-10-09 19:21:00,47.3,36.5,29.85,SW,225,1.3,1.6,66,0.00,,---,0.00,VWS V14.01,2013-10-09 23:21:00,
2013-10-09 19:26:00,46.9,36.6,29.85,SW,225,2.0,2.2,67,0.00,,---,0.00,VWS V14.01,2013-10-09 23:26:00,
2013-10-09 19:31:00,46.8,36.4,29.85,SW,225,1.6,1.6,67,0.00,,---,0.00,VWS V14.01,2013-10-09 23:31:00,
2013-10-09 19:37:00,46.2,36.3,29.85,SW,225,1.6,1.6,68,0.00,,---,0.00,VWS V14.01,2013-10-09 23:37:00,
2013-10-09 19:42:00,46.0,36.1,29.85,SW,225,1.3,1.3,68,0.00,,---,0.00,VWS V14.01,2013-10-09 23:42:00,
2013-10-09 19:47:00,45.7,36.1,29.85,SW,225,1.3,2.2,69,0.00,,---,0.00,VWS V14.01,2013-10-09 23:47:00,
2013-10-09 19:52:00,45.3,36.1,29.85,SW,225,1.1,2.0,70,0.00,,---,0.00,VWS V14.01,2013-10-09 23:52:00,
2013-10-09 19:57:00,45.0,35.8,29.85,SW,225,2.0,2.2,70,0.00,,---,0.00,VWS V14.01,2013-10-09 23:57:00,
2013-10-09 20:02:00,44.8,36.0,29.85,SW,225,1.6,2.0,71,0.00,,---,0.00,VWS V14.01,2013-10-10 00:02:00,
2013-10-09 20:07:00,44.6,35.8,29.88,SW,225,0.0,0.0,71,0.00,,---,0.00,VWS V14.01,2013-10-10 00:07:00,
2013-10-09 20:12:00,44.2,35.8,29.88,SW,225,1.1,1.3,72,0.00,,---,0.00,VWS V14.01,2013-10-10 00:12:00,
2013-10-09 20:17:00,44.1,35.6,29.88,SW,225,1.3,1.6,72,0.00,,---,0.00,VWS V14.01,2013-10-10 00:17:00,
2013-10-09 20:22:00,43.9,35.5,29.88,SW,225,0.0,0.0,72,0.00,,---,0.00,VWS V14.01,2013-10-10 00:22:00,
2013-10-09 20:27:00,43.5,35.5,29.88,SW,225,0.0,0.0,73,0.00,,---,0.00,VWS V14.01,2013-10-10 00:27:00,
2013-10-09 20:32:00,43.3,35.3,29.88,SW,225,1.3,1.3,73,0.00,,---,0.00,VWS V14.01,2013-10-10 00:32:00,
2013-10-09 20:37:00,43.2,35.1,29.88,SW,225,0.0,0.0,73,0.00,,---,0.00,VWS V14.01,2013-10-10 00:37:00,
2013-10-09 20:42:00,43.0,35.3,29.88,SW,225,1.6,1.6,74,0.00,,---,0.00,VWS V14.01,2013-10-10 00:42:00,
2013-10-09 20:47:00,42.8,34.8,29.88,SW,225,1.3,1.3,73,0.00,,---,0.00,VWS V14.01,2013-10-10 00:47:00,
2013-10-09 20:52:00,42.4,34.8,29.88,SW,225,2.0,2.2,74,0.00,,---,0.00,VWS V14.01,2013-10-10 00:52:00,
2013-10-09 20:57:00,42.1,34.4,29.88,SW,225,1.6,1.6,74,0.00,,---,0.00,VWS V14.01,2013-10-10 00:57:00,
2013-10-09 21:02:00,42.1,34.4,29.88,West,270,2.9,2.9,74,0.00,,---,0.00,VWS V14.01,2013-10-10 01:02:00,
2013-10-09 21:07:00,41.7,34.1,29.85,WSW,248,2.0,2.0,74,0.00,,---,0.00,VWS V14.01,2013-10-10 01:07:00,
2013-10-09 21:12:00,41.7,34.4,29.85,SW,225,2.5,2.5,75,0.00,,---,0.00,VWS V14.01,2013-10-10 01:12:00,
2013-10-09 21:17:00,41.4,34.0,29.85,SW,225,0.0,1.3,75,0.00,,---,0.00,VWS V14.01,2013-10-10 01:17:00,
2013-10-09 21:22:00,41.2,33.9,29.85,SW,225,1.6,2.0,75,0.00,,---,0.00,VWS V14.01,2013-10-10 01:22:00,
2013-10-09 21:27:00,41.0,33.7,29.85,SW,225,0.0,0.0,75,0.00,,---,0.00,VWS V14.01,2013-10-10 01:27:00,
2013-10-09 21:32:00,40.8,33.8,29.85,SW,225,0.0,0.0,76,0.00,,---,0.00,VWS V14.01,2013-10-10 01:32:00,
2013-10-09 21:39:00,40.6,33.7,29.88,SW,225,0.0,0.0,76,0.00,,---,0.00,VWS V14.01,2013-10-10 01:39:00,
2013-10-09 21:45:00,40.5,33.8,29.88,SW,225,1.3,1.6,77,0.00,,---,0.00,VWS V14.01,2013-10-10 01:45:00,
2013-10-09 21:50:00,40.3,33.7,29.88,SW,225,0.0,0.0,77,0.00,,---,0.00,VWS V14.01,2013-10-10 01:50:00,
2013-10-09 21:55:00,40.1,33.5,29.88,SW,225,0.0,0.0,77,0.00,,---,0.00,VWS V14.01,2013-10-10 01:55:00,
2013-10-09 22:00:00,39.9,33.3,29.88,SW,225,2.0,2.0,77,0.00,,---,0.00,VWS V14.01,2013-10-10 02:00:00,
2013-10-09 22:05:00,39.7,33.1,29.85,SW,225,0.0,0.0,77,0.00,,---,0.00,VWS V14.01,2013-10-10 02:05:00,
2013-10-09 22:11:00,39.6,33.0,29.85,SW,225,0.0,0.0,77,0.00,,---,0.00,VWS V14.01,2013-10-10 02:11:00,
2013-10-09 22:16:00,39.4,32.8,29.85,SW,225,0.0,0.0,77,0.00,,---,0.00,VWS V14.01,2013-10-10 02:16:00,
2013-10-09 22:22:00,39.2,32.6,29.85,SW,225,0.0,0.0,77,0.00,,---,0.00,VWS V14.01,2013-10-10 02:22:00,
2013-10-09 22:27:00,39.2,32.9,29.85,SW,225,0.0,0.0,78,0.00,,---,0.00,VWS V14.01,2013-10-10 02:27:00,
2013-10-09 22:32:00,38.8,32.6,29.85,SW,225,0.0,0.0,78,0.00,,---,0.00,VWS V14.01,2013-10-10 02:32:00,
2013-10-09 22:37:00,38.8,32.6,29.88,WNW,292,2.0,2.0,78,0.00,,---,0.00,VWS V14.01,2013-10-10 02:37:00,
2013-10-09 22:42:00,38.7,32.4,29.88,WSW,248,1.3,1.6,78,0.00,,---,0.00,VWS V14.01,2013-10-10 02:42:00,
2013-10-09 22:47:00,39.0,33.1,29.88,SW,225,2.5,2.9,79,0.00,,---,0.00,VWS V14.01,2013-10-10 02:47:00,
2013-10-09 22:52:00,39.0,33.4,29.85,SW,225,0.9,1.3,80,0.00,,---,0.00,VWS V14.01,2013-10-10 02:52:00,
2013-10-09 22:57:00,39.0,33.4,29.85,SSW,202,1.1,1.3,80,0.00,,---,0.00,VWS V14.01,2013-10-10 02:57:00,
2013-10-09 23:02:00,38.8,32.9,29.85,SSW,202,2.2,2.7,79,0.00,,---,0.00,VWS V14.01,2013-10-10 03:02:00,
2013-10-09 23:08:00,38.7,32.7,29.85,SSW,202,1.3,1.3,79,0.00,,---,0.00,VWS V14.01,2013-10-10 03:08:00,
2013-10-09 23:14:00,38.5,32.5,29.85,SSW,202,1.1,1.6,79,0.00,,---,0.00,VWS V14.01,2013-10-10 03:14:00,
2013-10-09 23:19:00,38.3,32.4,29.85,SSW,202,2.0,2.5,79,0.00,,---,0.00,VWS V14.01,2013-10-10 03:19:00,
2013-10-09 23:24:00,38.1,32.2,29.85,SSW,202,1.3,2.0,79,0.00,,---,0.00,VWS V14.01,2013-10-10 03:24:00,
2013-10-09 23:29:00,37.9,32.0,29.85,SSW,202,0.0,1.1,79,0.00,,---,0.00,VWS V14.01,2013-10-10 03:29:00,
2013-10-09 23:34:00,37.8,32.2,29.85,SSW,202,0.0,0.0,80,0.00,,---,0.00,VWS V14.01,2013-10-10 03:34:00,
2013-10-09 23:39:00,37.6,32.0,29.85,SW,225,2.0,2.5,80,0.00,,---,0.00,VWS V14.01,2013-10-10 03:39:00,
2013-10-09 23:44:00,37.6,32.0,29.85,SW,225,1.6,1.6,80,0.00,,---,0.00,VWS V14.01,2013-10-10 03:44:00,
2013-10-09 23:49:00,37.6,32.0,29.85,SW,225,0.0,1.1,80,0.00,,---,0.00,VWS V14.01,2013-10-10 03:49:00,
2013-10-09 23:54:00,37.2,31.9,29.85,SW,225,1.3,1.3,81,0.00,,---,0.00,VWS V14.01,2013-10-10 03:54:00,
2013-10-09 23:59:00,37.0,31.8,29.85,SW,225,1.3,1.3,81,0.00,,---,0.00,VWS V14.01,2013-10-10 03:59:00,